sensor_id;sensor_type;location;lat;lon;timestamp;temperature;humidity
33564;DHT22;19894;48.452;11.494;2022-12-18T00:01:13;18.20;30.30
33564;DHT22;19894;48.452;11.494;2022-12-18T00:03:38;18.20;30.30
33564;DHT22;19894;48.452;11.494;2022-12-18T00:06:04;18.20;30.30
33564;DHT22;19894;48.452;11.494;2022-12-18T00:08:30;18.20;30.30
33564;DHT22;19894;48.452;11.494;2022-12-18T00:10:55;18.20;30.40
33564;DHT22;19894;48.452;11.494;2022-12-18T00:13:28;18.20;30.30
33564;DHT22;19894;48.452;11.494;2022-12-18T00:15:53;18.20;30.30
33564;DHT22;19894;48.452;11.494;2022-12-18T00:18:19;18.20;30.30
33564;DHT22;19894;48.452;11.494;2022-12-18T00:20:44;18.20;30.30
33564;DHT22;19894;48.452;11.494;2022-12-18T00:23:10;18.20;30.30
33564;DHT22;19894;48.452;11.494;2022-12-18T00:25:36;18.20;30.30
33564;DHT22;19894;48.452;11.494;2022-12-18T00:28:03;18.20;30.30
33564;DHT22;19894;48.452;11.494;2022-12-18T00:30:29;18.20;30.40
33564;DHT22;19894;48.452;11.494;2022-12-18T00:32:55;18.20;30.30
33564;DHT22;19894;48.452;11.494;2022-12-18T00:35:21;18.20;30.30
33564;DHT22;19894;48.452;11.494;2022-12-18T00:37:47;18.20;30.40
33564;DHT22;19894;48.452;11.494;2022-12-18T00:40:12;18.20;30.40
33564;DHT22;19894;48.452;11.494;2022-12-18T00:42:38;18.20;30.40
33564;DHT22;19894;48.452;11.494;2022-12-18T00:45:30;18.20;30.30
33564;DHT22;19894;48.452;11.494;2022-12-18T00:47:56;18.20;30.30
33564;DHT22;19894;48.452;11.494;2022-12-18T00:50:24;18.20;30.40
33564;DHT22;19894;48.452;11.494;2022-12-18T00:52:50;18.20;30.40
33564;DHT22;19894;48.452;11.494;2022-12-18T00:55:16;18.20;30.40
33564;DHT22;19894;48.452;11.494;2022-12-18T00:57:42;18.20;30.40
33564;DHT22;19894;48.452;11.494;2022-12-18T01:00:10;18.20;30.40
33564;DHT22;19894;48.452;11.494;2022-12-18T01:02:37;18.20;30.40
33564;DHT22;19894;48.452;11.494;2022-12-18T01:05:03;18.20;30.40
33564;DHT22;19894;48.452;11.494;2022-12-18T01:07:29;18.20;30.40
33564;DHT22;19894;48.452;11.494;2022-12-18T01:09:55;18.20;30.40
33564;DHT22;19894;48.452;11.494;2022-12-18T01:12:20;18.20;30.50
33564;DHT22;19894;48.452;11.494;2022-12-18T01:14:46;18.20;30.50
33564;DHT22;19894;48.452;11.494;2022-12-18T01:17:11;18.20;30.40
33564;DHT22;19894;48.452;11.494;2022-12-18T01:19:37;18.20;30.40
33564;DHT22;19894;48.452;11.494;2022-12-18T01:22:02;18.20;30.40
33564;DHT22;19894;48.452;11.494;2022-12-18T01:24:28;18.20;30.40
33564;DHT22;19894;48.452;11.494;2022-12-18T01:26:54;18.20;30.40
33564;DHT22;19894;48.452;11.494;2022-12-18T01:29:19;18.20;30.40
33564;DHT22;19894;48.452;11.494;2022-12-18T01:31:45;18.20;30.40
33564;DHT22;19894;48.452;11.494;2022-12-18T01:34:11;18.20;30.40
33564;DHT22;19894;48.452;11.494;2022-12-18T01:36:37;18.20;30.50
33564;DHT22;19894;48.452;11.494;2022-12-18T01:39:06;18.20;30.50
33564;DHT22;19894;48.452;11.494;2022-12-18T01:41:34;18.20;30.50
33564;DHT22;19894;48.452;11.494;2022-12-18T01:47:22;18.20;30.40
33564;DHT22;19894;48.452;11.494;2022-12-18T01:49:48;18.20;30.50
33564;DHT22;19894;48.452;11.494;2022-12-18T01:52:15;18.20;30.50
33564;DHT22;19894;48.452;11.494;2022-12-18T01:54:42;18.20;30.50
33564;DHT22;19894;48.452;11.494;2022-12-18T01:57:08;18.20;30.50
33564;DHT22;19894;48.452;11.494;2022-12-18T01:59:35;18.20;30.50
33564;DHT22;19894;48.452;11.494;2022-12-18T02:02:02;18.20;30.50
33564;DHT22;19894;48.452;11.494;2022-12-18T02:04:28;18.20;30.50
33564;DHT22;19894;48.452;11.494;2022-12-18T02:07:05;18.20;30.60
33564;DHT22;19894;48.452;11.494;2022-12-18T02:09:43;18.20;30.50
33564;DHT22;19894;48.452;11.494;2022-12-18T02:12:20;18.20;30.50
33564;DHT22;19894;48.452;11.494;2022-12-18T02:17:42;18.20;30.50
33564;DHT22;19894;48.452;11.494;2022-12-18T02:20:33;18.20;30.50
33564;DHT22;19894;48.452;11.494;2022-12-18T02:23:12;18.20;30.50
33564;DHT22;19894;48.452;11.494;2022-12-18T02:26:16;18.20;30.50
33564;DHT22;19894;48.452;11.494;2022-12-18T02:28:53;18.20;30.50
33564;DHT22;19894;48.452;11.494;2022-12-18T02:31:27;18.20;30.60
33564;DHT22;19894;48.452;11.494;2022-12-18T02:33:56;18.20;30.50
33564;DHT22;19894;48.452;11.494;2022-12-18T02:36:23;18.20;30.50
33564;DHT22;19894;48.452;11.494;2022-12-18T02:38:51;18.20;30.60
33564;DHT22;19894;48.452;11.494;2022-12-18T02:41:18;18.20;30.50
33564;DHT22;19894;48.452;11.494;2022-12-18T02:43:53;18.20;30.50
33564;DHT22;19894;48.452;11.494;2022-12-18T02:48:54;18.20;30.50
33564;DHT22;19894;48.452;11.494;2022-12-18T02:51:37;18.20;30.60
33564;DHT22;19894;48.452;11.494;2022-12-18T02:57:04;18.20;30.60
33564;DHT22;19894;48.452;11.494;2022-12-18T02:59:41;18.20;30.60
33564;DHT22;19894;48.452;11.494;2022-12-18T03:05:01;18.20;30.60
33564;DHT22;19894;48.452;11.494;2022-12-18T03:07:50;18.20;30.60
33564;DHT22;19894;48.452;11.494;2022-12-18T03:10:21;18.20;30.50
33564;DHT22;19894;48.452;11.494;2022-12-18T03:12:54;18.20;30.60
33564;DHT22;19894;48.452;11.494;2022-12-18T03:15:29;18.20;30.60
33564;DHT22;19894;48.452;11.494;2022-12-18T03:18:27;18.30;30.60
33564;DHT22;19894;48.452;11.494;2022-12-18T03:20:57;18.30;30.60
33564;DHT22;19894;48.452;11.494;2022-12-18T03:23:27;18.20;30.60
33564;DHT22;19894;48.452;11.494;2022-12-18T03:25:55;18.20;30.60
33564;DHT22;19894;48.452;11.494;2022-12-18T03:28:22;18.20;30.60
33564;DHT22;19894;48.452;11.494;2022-12-18T03:30:54;18.20;30.60
33564;DHT22;19894;48.452;11.494;2022-12-18T03:33:26;18.20;30.70
33564;DHT22;19894;48.452;11.494;2022-12-18T03:35:54;18.20;30.60
33564;DHT22;19894;48.452;11.494;2022-12-18T03:38:20;18.20;30.70
33564;DHT22;19894;48.452;11.494;2022-12-18T03:40:51;18.20;30.60
33564;DHT22;19894;48.452;11.494;2022-12-18T03:43:52;18.20;30.60
33564;DHT22;19894;48.452;11.494;2022-12-18T03:46:27;18.20;30.50
33564;DHT22;19894;48.452;11.494;2022-12-18T03:49:10;18.20;30.60
33564;DHT22;19894;48.452;11.494;2022-12-18T03:51:42;18.20;30.60
33564;DHT22;19894;48.452;11.494;2022-12-18T03:54:11;18.20;30.60
33564;DHT22;19894;48.452;11.494;2022-12-18T03:56:40;18.20;30.60
33564;DHT22;19894;48.452;11.494;2022-12-18T03:59:08;18.20;30.70
33564;DHT22;19894;48.452;11.494;2022-12-18T04:01:38;18.20;30.60
33564;DHT22;19894;48.452;11.494;2022-12-18T04:04:05;18.20;30.70
33564;DHT22;19894;48.452;11.494;2022-12-18T04:06:32;18.20;30.60
33564;DHT22;19894;48.452;11.494;2022-12-18T04:09:00;18.20;30.60
33564;DHT22;19894;48.452;11.494;2022-12-18T04:11:26;18.20;30.60
33564;DHT22;19894;48.452;11.494;2022-12-18T04:13:55;18.20;30.60
33564;DHT22;19894;48.452;11.494;2022-12-18T04:16:23;18.20;30.60
33564;DHT22;19894;48.452;11.494;2022-12-18T04:18:48;18.20;30.60
33564;DHT22;19894;48.452;11.494;2022-12-18T04:21:14;18.20;30.60
33564;DHT22;19894;48.452;11.494;2022-12-18T04:23:40;18.20;30.60
33564;DHT22;19894;48.452;11.494;2022-12-18T04:26:05;18.20;30.60
33564;DHT22;19894;48.452;11.494;2022-12-18T04:28:31;18.20;30.70
33564;DHT22;19894;48.452;11.494;2022-12-18T04:30:56;18.20;30.70
33564;DHT22;19894;48.452;11.494;2022-12-18T04:33:22;18.20;30.70
33564;DHT22;19894;48.452;11.494;2022-12-18T04:35:48;18.20;30.70
33564;DHT22;19894;48.452;11.494;2022-12-18T04:38:13;18.20;30.70
33564;DHT22;19894;48.452;11.494;2022-12-18T04:40:39;18.20;30.70
33564;DHT22;19894;48.452;11.494;2022-12-18T04:43:05;18.20;30.70
33564;DHT22;19894;48.452;11.494;2022-12-18T04:45:31;18.20;30.70
33564;DHT22;19894;48.452;11.494;2022-12-18T04:48:01;18.20;30.70
33564;DHT22;19894;48.452;11.494;2022-12-18T04:50:27;18.20;30.70
33564;DHT22;19894;48.452;11.494;2022-12-18T04:52:53;18.20;30.60
33564;DHT22;19894;48.452;11.494;2022-12-18T04:55:19;18.20;30.70
33564;DHT22;19894;48.452;11.494;2022-12-18T04:57:44;18.20;30.70
33564;DHT22;19894;48.452;11.494;2022-12-18T05:00:10;18.20;30.70
33564;DHT22;19894;48.452;11.494;2022-12-18T05:02:36;18.20;30.70
33564;DHT22;19894;48.452;11.494;2022-12-18T05:05:02;18.20;30.70
33564;DHT22;19894;48.452;11.494;2022-12-18T05:07:28;18.20;30.70
33564;DHT22;19894;48.452;11.494;2022-12-18T05:09:53;18.20;30.70
33564;DHT22;19894;48.452;11.494;2022-12-18T05:12:19;18.20;30.70
33564;DHT22;19894;48.452;11.494;2022-12-18T05:14:44;18.30;30.70
33564;DHT22;19894;48.452;11.494;2022-12-18T05:17:10;18.20;30.70
33564;DHT22;19894;48.452;11.494;2022-12-18T05:19:35;18.20;30.70
33564;DHT22;19894;48.452;11.494;2022-12-18T05:22:04;18.20;30.70
33564;DHT22;19894;48.452;11.494;2022-12-18T05:24:32;18.30;30.70
33564;DHT22;19894;48.452;11.494;2022-12-18T05:26:58;18.20;30.70
33564;DHT22;19894;48.452;11.494;2022-12-18T05:29:23;18.20;30.70
33564;DHT22;19894;48.452;11.494;2022-12-18T05:31:49;18.20;30.70
33564;DHT22;19894;48.452;11.494;2022-12-18T05:34:14;18.20;30.70
33564;DHT22;19894;48.452;11.494;2022-12-18T05:36:40;18.20;30.70
33564;DHT22;19894;48.452;11.494;2022-12-18T05:39:06;18.20;30.70
33564;DHT22;19894;48.452;11.494;2022-12-18T05:41:32;18.20;30.70
33564;DHT22;19894;48.452;11.494;2022-12-18T05:43:58;18.20;30.70
33564;DHT22;19894;48.452;11.494;2022-12-18T05:46:24;18.20;30.70
33564;DHT22;19894;48.452;11.494;2022-12-18T05:48:49;18.20;30.70
33564;DHT22;19894;48.452;11.494;2022-12-18T05:51:17;18.20;30.70
33564;DHT22;19894;48.452;11.494;2022-12-18T05:53:43;18.20;30.70
33564;DHT22;19894;48.452;11.494;2022-12-18T05:56:15;18.20;30.70
33564;DHT22;19894;48.452;11.494;2022-12-18T05:58:41;18.20;30.80
33564;DHT22;19894;48.452;11.494;2022-12-18T06:01:13;18.20;30.80
33564;DHT22;19894;48.452;11.494;2022-12-18T06:03:39;18.20;31.30
33564;DHT22;19894;48.452;11.494;2022-12-18T06:06:16;18.20;30.70
33564;DHT22;19894;48.452;11.494;2022-12-18T06:08:42;18.20;30.70
33564;DHT22;19894;48.452;11.494;2022-12-18T06:11:08;18.20;30.70
33564;DHT22;19894;48.452;11.494;2022-12-18T06:13:33;18.20;30.70
33564;DHT22;19894;48.452;11.494;2022-12-18T06:16:03;18.30;30.80
33564;DHT22;19894;48.452;11.494;2022-12-18T06:18:29;18.30;30.80
33564;DHT22;19894;48.452;11.494;2022-12-18T06:20:55;18.20;30.70
33564;DHT22;19894;48.452;11.494;2022-12-18T06:23:21;18.30;30.80
33564;DHT22;19894;48.452;11.494;2022-12-18T06:25:47;18.20;30.70
33564;DHT22;19894;48.452;11.494;2022-12-18T06:28:12;18.30;30.80
33564;DHT22;19894;48.452;11.494;2022-12-18T06:30:38;18.20;30.70
33564;DHT22;19894;48.452;11.494;2022-12-18T06:33:03;18.20;30.70
33564;DHT22;19894;48.452;11.494;2022-12-18T06:35:29;18.20;30.80
33564;DHT22;19894;48.452;11.494;2022-12-18T06:37:55;18.20;30.80
33564;DHT22;19894;48.452;11.494;2022-12-18T06:40:20;18.20;30.70
33564;DHT22;19894;48.452;11.494;2022-12-18T06:42:46;18.20;30.70
33564;DHT22;19894;48.452;11.494;2022-12-18T06:45:15;18.20;30.70
33564;DHT22;19894;48.452;11.494;2022-12-18T06:47:40;18.20;30.80
33564;DHT22;19894;48.452;11.494;2022-12-18T06:50:06;18.20;30.80
33564;DHT22;19894;48.452;11.494;2022-12-18T06:52:33;18.20;30.80
33564;DHT22;19894;48.452;11.494;2022-12-18T06:54:59;18.20;30.80
33564;DHT22;19894;48.452;11.494;2022-12-18T06:57:24;18.20;30.70
33564;DHT22;19894;48.452;11.494;2022-12-18T06:59:50;18.20;30.80
33564;DHT22;19894;48.452;11.494;2022-12-18T07:02:16;18.20;30.80
33564;DHT22;19894;48.452;11.494;2022-12-18T07:04:41;18.20;30.80
33564;DHT22;19894;48.452;11.494;2022-12-18T07:07:07;18.20;30.80
33564;DHT22;19894;48.452;11.494;2022-12-18T07:09:32;18.20;30.80
33564;DHT22;19894;48.452;11.494;2022-12-18T07:11:58;18.20;30.80
33564;DHT22;19894;48.452;11.494;2022-12-18T07:14:24;18.20;30.70
33564;DHT22;19894;48.452;11.494;2022-12-18T07:16:49;18.30;30.80
33564;DHT22;19894;48.452;11.494;2022-12-18T07:19:15;18.30;30.80
33564;DHT22;19894;48.452;11.494;2022-12-18T07:21:40;18.20;30.70
33564;DHT22;19894;48.452;11.494;2022-12-18T07:24:06;18.30;30.80
33564;DHT22;19894;48.452;11.494;2022-12-18T07:26:32;18.20;30.70
33564;DHT22;19894;48.452;11.494;2022-12-18T07:28:58;18.20;30.70
33564;DHT22;19894;48.452;11.494;2022-12-18T07:31:24;18.20;30.70
33564;DHT22;19894;48.452;11.494;2022-12-18T07:33:51;18.20;30.80
33564;DHT22;19894;48.452;11.494;2022-12-18T07:36:17;18.20;30.80
33564;DHT22;19894;48.452;11.494;2022-12-18T07:38:42;18.30;30.80
33564;DHT22;19894;48.452;11.494;2022-12-18T07:41:12;18.20;30.80
33564;DHT22;19894;48.452;11.494;2022-12-18T07:43:38;18.20;30.80
33564;DHT22;19894;48.452;11.494;2022-12-18T07:46:05;18.20;30.70
33564;DHT22;19894;48.452;11.494;2022-12-18T07:48:31;18.20;30.80
33564;DHT22;19894;48.452;11.494;2022-12-18T07:51:05;18.20;31.30
33564;DHT22;19894;48.452;11.494;2022-12-18T07:53:32;18.20;30.90
33564;DHT22;19894;48.452;11.494;2022-12-18T07:55:58;18.20;30.80
33564;DHT22;19894;48.452;11.494;2022-12-18T07:58:24;18.20;30.80
33564;DHT22;19894;48.452;11.494;2022-12-18T08:00:51;18.20;30.90
33564;DHT22;19894;48.452;11.494;2022-12-18T08:03:17;18.20;30.80
33564;DHT22;19894;48.452;11.494;2022-12-18T08:05:43;18.20;30.80
33564;DHT22;19894;48.452;11.494;2022-12-18T08:08:09;18.20;30.80
33564;DHT22;19894;48.452;11.494;2022-12-18T08:10:34;18.20;30.80
33564;DHT22;19894;48.452;11.494;2022-12-18T08:13:00;18.20;30.80
33564;DHT22;19894;48.452;11.494;2022-12-18T08:15:25;18.20;30.80
33564;DHT22;19894;48.452;11.494;2022-12-18T08:17:51;18.20;30.80
33564;DHT22;19894;48.452;11.494;2022-12-18T08:20:17;18.20;30.80
33564;DHT22;19894;48.452;11.494;2022-12-18T08:22:43;18.30;30.80
33564;DHT22;19894;48.452;11.494;2022-12-18T08:25:09;18.20;30.80
33564;DHT22;19894;48.452;11.494;2022-12-18T08:27:35;18.20;30.80
33564;DHT22;19894;48.452;11.494;2022-12-18T08:30:01;18.30;30.80
33564;DHT22;19894;48.452;11.494;2022-12-18T08:32:27;18.30;30.90
33564;DHT22;19894;48.452;11.494;2022-12-18T08:34:53;18.20;30.80
33564;DHT22;19894;48.452;11.494;2022-12-18T08:37:19;18.20;30.80
33564;DHT22;19894;48.452;11.494;2022-12-18T08:39:44;18.20;30.80
33564;DHT22;19894;48.452;11.494;2022-12-18T08:42:10;18.20;30.80
33564;DHT22;19894;48.452;11.494;2022-12-18T08:44:55;18.20;30.80
33564;DHT22;19894;48.452;11.494;2022-12-18T08:47:20;18.20;30.90
33564;DHT22;19894;48.452;11.494;2022-12-18T08:49:46;18.20;30.80
33564;DHT22;19894;48.452;11.494;2022-12-18T08:52:11;18.20;30.80
33564;DHT22;19894;48.452;11.494;2022-12-18T08:54:37;18.20;30.80
33564;DHT22;19894;48.452;11.494;2022-12-18T08:57:03;18.20;30.80
33564;DHT22;19894;48.452;11.494;2022-12-18T08:59:28;18.20;30.80
33564;DHT22;19894;48.452;11.494;2022-12-18T09:01:55;18.20;30.80
33564;DHT22;19894;48.452;11.494;2022-12-18T09:04:21;18.20;30.90
33564;DHT22;19894;48.452;11.494;2022-12-18T09:06:47;18.20;30.80
33564;DHT22;19894;48.452;11.494;2022-12-18T09:09:12;18.20;30.80
33564;DHT22;19894;48.452;11.494;2022-12-18T09:11:38;18.20;30.80
33564;DHT22;19894;48.452;11.494;2022-12-18T09:14:04;18.20;30.80
33564;DHT22;19894;48.452;11.494;2022-12-18T09:16:30;18.20;30.80
33564;DHT22;19894;48.452;11.494;2022-12-18T09:18:57;18.30;30.90
33564;DHT22;19894;48.452;11.494;2022-12-18T09:21:29;18.30;30.90
33564;DHT22;19894;48.452;11.494;2022-12-18T09:23:55;18.20;30.80
33564;DHT22;19894;48.452;11.494;2022-12-18T09:26:22;18.30;30.90
33564;DHT22;19894;48.452;11.494;2022-12-18T09:28:48;18.30;30.90
33564;DHT22;19894;48.452;11.494;2022-12-18T09:31:15;18.20;30.80
33564;DHT22;19894;48.452;11.494;2022-12-18T09:33:41;18.30;30.90
33564;DHT22;19894;48.452;11.494;2022-12-18T09:36:09;18.20;30.80
33564;DHT22;19894;48.452;11.494;2022-12-18T09:38:36;18.20;30.80
33564;DHT22;19894;48.452;11.494;2022-12-18T09:44:20;18.20;30.80
33564;DHT22;19894;48.452;11.494;2022-12-18T09:47:11;18.20;30.80
33564;DHT22;19894;48.452;11.494;2022-12-18T09:49:55;18.30;30.90
33564;DHT22;19894;48.452;11.494;2022-12-18T09:52:28;18.20;30.80
33564;DHT22;19894;48.452;11.494;2022-12-18T09:55:11;18.20;30.90
33564;DHT22;19894;48.452;11.494;2022-12-18T09:57:42;18.20;30.80
33564;DHT22;19894;48.452;11.494;2022-12-18T10:00:19;18.20;30.90
33564;DHT22;19894;48.452;11.494;2022-12-18T10:02:46;18.20;30.80
33564;DHT22;19894;48.452;11.494;2022-12-18T10:05:15;18.20;30.90
33564;DHT22;19894;48.452;11.494;2022-12-18T10:10:43;18.20;30.90
33564;DHT22;19894;48.452;11.494;2022-12-18T10:13:23;18.20;30.80
33564;DHT22;19894;48.452;11.494;2022-12-18T10:16:14;18.20;30.90
33564;DHT22;19894;48.452;11.494;2022-12-18T10:26:41;18.20;30.90
33564;DHT22;19894;48.452;11.494;2022-12-18T10:29:14;18.20;30.80
33564;DHT22;19894;48.452;11.494;2022-12-18T10:31:41;18.30;30.90
33564;DHT22;19894;48.452;11.494;2022-12-18T10:34:13;18.30;30.90
33564;DHT22;19894;48.452;11.494;2022-12-18T10:36:39;18.30;30.90
33564;DHT22;19894;48.452;11.494;2022-12-18T10:39:19;18.20;30.90
33564;DHT22;19894;48.452;11.494;2022-12-18T10:41:45;18.20;30.80
33564;DHT22;19894;48.452;11.494;2022-12-18T10:44:19;18.20;30.80
33564;DHT22;19894;48.452;11.494;2022-12-18T10:46:47;18.20;30.90
33564;DHT22;19894;48.452;11.494;2022-12-18T10:49:27;18.20;30.80
33564;DHT22;19894;48.452;11.494;2022-12-18T10:54:37;18.20;30.80
33564;DHT22;19894;48.452;11.494;2022-12-18T10:59:58;18.20;30.80
33564;DHT22;19894;48.452;11.494;2022-12-18T11:02:44;18.20;30.80
33564;DHT22;19894;48.452;11.494;2022-12-18T11:05:33;18.20;31.40
33564;DHT22;19894;48.452;11.494;2022-12-18T11:08:00;18.20;30.80
33564;DHT22;19894;48.452;11.494;2022-12-18T11:10:32;18.20;30.90
33564;DHT22;19894;48.452;11.494;2022-12-18T11:13:17;18.20;30.80
33564;DHT22;19894;48.452;11.494;2022-12-18T11:15:43;18.20;30.80
33564;DHT22;19894;48.452;11.494;2022-12-18T11:18:17;18.20;30.80
33564;DHT22;19894;48.452;11.494;2022-12-18T11:20:54;18.20;30.80
33564;DHT22;19894;48.452;11.494;2022-12-18T11:23:21;18.20;30.80
33564;DHT22;19894;48.452;11.494;2022-12-18T11:25:54;18.20;30.80
33564;DHT22;19894;48.452;11.494;2022-12-18T11:28:36;18.20;30.80
33564;DHT22;19894;48.452;11.494;2022-12-18T11:36:41;18.20;30.80
33564;DHT22;19894;48.452;11.494;2022-12-18T11:42:20;18.20;30.80
33564;DHT22;19894;48.452;11.494;2022-12-18T11:44:55;18.20;30.80
33564;DHT22;19894;48.452;11.494;2022-12-18T11:52:55;18.20;30.80
33564;DHT22;19894;48.452;11.494;2022-12-18T11:55:37;18.20;30.80
33564;DHT22;19894;48.452;11.494;2022-12-18T11:58:12;18.20;30.80
33564;DHT22;19894;48.452;11.494;2022-12-18T12:00:52;18.20;30.80
33564;DHT22;19894;48.452;11.494;2022-12-18T12:06:08;18.20;30.80
33564;DHT22;19894;48.452;11.494;2022-12-18T12:16:58;18.20;30.80
33564;DHT22;19894;48.452;11.494;2022-12-18T12:27:50;18.20;30.80
33564;DHT22;19894;48.452;11.494;2022-12-18T12:30:21;18.20;30.80
33564;DHT22;19894;48.452;11.494;2022-12-18T12:38:27;18.20;30.80
33564;DHT22;19894;48.452;11.494;2022-12-18T12:41:05;18.20;30.80
33564;DHT22;19894;48.452;11.494;2022-12-18T12:43:52;18.30;30.90
33564;DHT22;19894;48.452;11.494;2022-12-18T12:46:21;18.20;30.80
33564;DHT22;19894;48.452;11.494;2022-12-18T12:48:51;18.20;30.90
33564;DHT22;19894;48.452;11.494;2022-12-18T12:51:21;18.30;30.90
33564;DHT22;19894;48.452;11.494;2022-12-18T12:53:48;18.20;30.80
33564;DHT22;19894;48.452;11.494;2022-12-18T12:56:16;18.20;30.80
33564;DHT22;19894;48.452;11.494;2022-12-18T12:58:53;18.20;30.80
33564;DHT22;19894;48.452;11.494;2022-12-18T13:04:42;18.20;30.80
33564;DHT22;19894;48.452;11.494;2022-12-18T13:07:14;18.20;30.80
33564;DHT22;19894;48.452;11.494;2022-12-18T13:10:14;18.20;30.90
33564;DHT22;19894;48.452;11.494;2022-12-18T13:13:10;18.20;30.80
33564;DHT22;19894;48.452;11.494;2022-12-18T13:15:45;18.20;31.40
33564;DHT22;19894;48.452;11.494;2022-12-18T13:18:18;18.20;31.10
33564;DHT22;19894;48.452;11.494;2022-12-18T13:31:02;18.30;30.90
33564;DHT22;19894;48.452;11.494;2022-12-18T13:36:46;18.30;30.90
33564;DHT22;19894;48.452;11.494;2022-12-18T13:38:46;18.20;30.90
33564;DHT22;19894;48.452;11.494;2022-12-18T13:43:51;18.30;30.90
33564;DHT22;19894;48.452;11.494;2022-12-18T13:46:28;18.20;31.40
33564;DHT22;19894;48.452;11.494;2022-12-18T13:51:51;18.20;30.90
33564;DHT22;19894;48.452;11.494;2022-12-18T13:54:39;18.20;30.90
33564;DHT22;19894;48.452;11.494;2022-12-18T13:57:36;18.20;30.90
33564;DHT22;19894;48.452;11.494;2022-12-18T14:00:25;18.20;30.90
33564;DHT22;19894;48.452;11.494;2022-12-18T14:02:53;18.20;30.90
33564;DHT22;19894;48.452;11.494;2022-12-18T14:05:36;18.20;30.90
33564;DHT22;19894;48.452;11.494;2022-12-18T14:08:15;18.20;30.90
33564;DHT22;19894;48.452;11.494;2022-12-18T14:10:46;18.20;30.90
33564;DHT22;19894;48.452;11.494;2022-12-18T14:13:32;18.20;30.90
33564;DHT22;19894;48.452;11.494;2022-12-18T14:16:02;18.20;30.90
33564;DHT22;19894;48.452;11.494;2022-12-18T14:21:00;18.20;30.90
33564;DHT22;19894;48.452;11.494;2022-12-18T14:23:31;18.20;30.90
33564;DHT22;19894;48.452;11.494;2022-12-18T14:25:58;18.30;30.90
33564;DHT22;19894;48.452;11.494;2022-12-18T14:28:23;18.30;30.90
33564;DHT22;19894;48.452;11.494;2022-12-18T14:30:49;18.30;30.90
33564;DHT22;19894;48.452;11.494;2022-12-18T14:33:27;18.20;30.80
33564;DHT22;19894;48.452;11.494;2022-12-18T14:36:02;18.30;30.90
33564;DHT22;19894;48.452;11.494;2022-12-18T14:38:39;18.30;30.90
33564;DHT22;19894;48.452;11.494;2022-12-18T14:41:16;18.30;30.90
33564;DHT22;19894;48.452;11.494;2022-12-18T14:43:44;18.30;30.90
33564;DHT22;19894;48.452;11.494;2022-12-18T14:46:36;18.20;30.90
33564;DHT22;19894;48.452;11.494;2022-12-18T14:51:51;18.20;30.90
33564;DHT22;19894;48.452;11.494;2022-12-18T14:54:19;18.20;30.90
33564;DHT22;19894;48.452;11.494;2022-12-18T14:57:23;18.20;30.90
33564;DHT22;19894;48.452;11.494;2022-12-18T14:59:50;18.20;30.90
33564;DHT22;19894;48.452;11.494;2022-12-18T15:02:27;18.20;30.90
33564;DHT22;19894;48.452;11.494;2022-12-18T15:05:04;18.20;30.90
33564;DHT22;19894;48.452;11.494;2022-12-18T15:07:44;18.20;30.80
33564;DHT22;19894;48.452;11.494;2022-12-18T15:12:45;18.20;30.90
33564;DHT22;19894;48.452;11.494;2022-12-18T15:20:44;18.20;30.90
33564;DHT22;19894;48.452;11.494;2022-12-18T15:26:16;18.20;30.90
33564;DHT22;19894;48.452;11.494;2022-12-18T15:28:50;18.20;30.80
33564;DHT22;19894;48.452;11.494;2022-12-18T15:34:01;18.20;30.90
33564;DHT22;19894;48.452;11.494;2022-12-18T15:36:29;18.20;30.80
33564;DHT22;19894;48.452;11.494;2022-12-18T15:38:57;18.20;30.80
33564;DHT22;19894;48.452;11.494;2022-12-18T15:41:23;18.20;30.90
33564;DHT22;19894;48.452;11.494;2022-12-18T15:43:52;18.30;31.50
33564;DHT22;19894;48.452;11.494;2022-12-18T15:46:21;18.20;30.90
33564;DHT22;19894;48.452;11.494;2022-12-18T15:48:57;18.20;30.90
33564;DHT22;19894;48.452;11.494;2022-12-18T15:51:24;18.30;30.90
33564;DHT22;19894;48.452;11.494;2022-12-18T15:53:54;18.30;30.90
33564;DHT22;19894;48.452;11.494;2022-12-18T15:56:20;18.20;30.90
33564;DHT22;19894;48.452;11.494;2022-12-18T15:59:13;18.20;30.90
33564;DHT22;19894;48.452;11.494;2022-12-18T16:01:39;18.20;30.80
33564;DHT22;19894;48.452;11.494;2022-12-18T16:04:05;18.20;30.90
33564;DHT22;19894;48.452;11.494;2022-12-18T16:06:31;18.20;30.90
33564;DHT22;19894;48.452;11.494;2022-12-18T16:08:56;18.20;30.80
33564;DHT22;19894;48.452;11.494;2022-12-18T16:11:30;18.20;31.40
33564;DHT22;19894;48.452;11.494;2022-12-18T16:14:18;18.20;30.90
33564;DHT22;19894;48.452;11.494;2022-12-18T16:16:52;18.20;30.90
33564;DHT22;19894;48.452;11.494;2022-12-18T16:19:18;18.20;30.90
33564;DHT22;19894;48.452;11.494;2022-12-18T16:21:45;18.20;30.90
33564;DHT22;19894;48.452;11.494;2022-12-18T16:24:19;18.20;30.90
33564;DHT22;19894;48.452;11.494;2022-12-18T16:26:48;18.20;30.90
33564;DHT22;19894;48.452;11.494;2022-12-18T16:29:14;18.30;30.90
33564;DHT22;19894;48.452;11.494;2022-12-18T16:31:40;18.20;30.80
33564;DHT22;19894;48.452;11.494;2022-12-18T16:34:26;18.30;30.90
33564;DHT22;19894;48.452;11.494;2022-12-18T16:36:54;18.30;30.90
33564;DHT22;19894;48.452;11.494;2022-12-18T16:39:20;18.20;30.90
33564;DHT22;19894;48.452;11.494;2022-12-18T16:41:47;18.20;30.80
33564;DHT22;19894;48.452;11.494;2022-12-18T16:44:13;18.30;30.90
33564;DHT22;19894;48.452;11.494;2022-12-18T16:46:39;18.20;30.80
33564;DHT22;19894;48.452;11.494;2022-12-18T16:49:08;18.20;30.90
33564;DHT22;19894;48.452;11.494;2022-12-18T16:51:34;18.20;30.90
33564;DHT22;19894;48.452;11.494;2022-12-18T16:53:59;18.30;30.90
33564;DHT22;19894;48.452;11.494;2022-12-18T16:56:25;18.20;30.90
33564;DHT22;19894;48.452;11.494;2022-12-18T16:58:56;18.20;30.90
33564;DHT22;19894;48.452;11.494;2022-12-18T17:01:22;18.30;30.90
33564;DHT22;19894;48.452;11.494;2022-12-18T17:03:52;18.20;30.90
33564;DHT22;19894;48.452;11.494;2022-12-18T17:06:19;18.20;30.90
33564;DHT22;19894;48.452;11.494;2022-12-18T17:08:44;18.20;30.90
33564;DHT22;19894;48.452;11.494;2022-12-18T17:11:10;18.20;30.90
33564;DHT22;19894;48.452;11.494;2022-12-18T17:13:36;18.20;30.90
33564;DHT22;19894;48.452;11.494;2022-12-18T17:16:06;18.20;30.90
33564;DHT22;19894;48.452;11.494;2022-12-18T17:18:33;18.20;30.80
33564;DHT22;19894;48.452;11.494;2022-12-18T17:21:04;18.20;30.90
33564;DHT22;19894;48.452;11.494;2022-12-18T17:23:30;18.20;30.80
33564;DHT22;19894;48.452;11.494;2022-12-18T17:25:57;18.20;30.80